sensor_id;sensor_type;location;lat;lon;timestamp;P1;durP1;ratioP1;P2;durP2;ratioP2
3052;SDS011;1536;51.098;6.414;2023-03-26T00:01:46;16.77;;;4.95;;
3052;SDS011;1536;51.098;6.414;2023-03-26T00:04:14;26.10;;;4.57;;
3052;SDS011;1536;51.098;6.414;2023-03-26T00:06:43;21.73;;;4.90;;
3052;SDS011;1536;51.098;6.414;2023-03-26T00:09:12;21.23;;;4.90;;
3052;SDS011;1536;51.098;6.414;2023-03-26T00:11:41;16.02;;;5.43;;
3052;SDS011;1536;51.098;6.414;2023-03-26T00:14:10;11.57;;;3.50;;
3052;SDS011;1536;51.098;6.414;2023-03-26T00:16:41;23.33;;;4.30;;
3052;SDS011;1536;51.098;6.414;2023-03-26T00:19:09;21.67;;;4.60;;
3052;SDS011;1536;51.098;6.414;2023-03-26T00:21:36;18.08;;;4.50;;
3052;SDS011;1536;51.098;6.414;2023-03-26T00:24:04;33.53;;;6.07;;
3052;SDS011;1536;51.098;6.414;2023-03-26T00:26:33;23.80;;;4.65;;
3052;SDS011;1536;51.098;6.414;2023-03-26T00:29:02;24.85;;;4.80;;
3052;SDS011;1536;51.098;6.414;2023-03-26T00:31:32;12.80;;;3.42;;
3052;SDS011;1536;51.098;6.414;2023-03-26T00:33:59;16.13;;;4.35;;
3052;SDS011;1536;51.098;6.414;2023-03-26T00:36:27;23.48;;;5.68;;
3052;SDS011;1536;51.098;6.414;2023-03-26T00:38:54;30.92;;;4.95;;
3052;SDS011;1536;51.098;6.414;2023-03-26T00:41:22;15.13;;;5.10;;
3052;SDS011;1536;51.098;6.414;2023-03-26T00:43:51;18.88;;;4.65;;
3052;SDS011;1536;51.098;6.414;2023-03-26T00:46:20;16.52;;;4.35;;
3052;SDS011;1536;51.098;6.414;2023-03-26T00:48:48;14.38;;;5.28;;
3052;SDS011;1536;51.098;6.414;2023-03-26T00:51:16;13.73;;;4.95;;
3052;SDS011;1536;51.098;6.414;2023-03-26T00:53:45;17.75;;;5.28;;
3052;SDS011;1536;51.098;6.414;2023-03-26T00:56:13;19.52;;;4.60;;
3052;SDS011;1536;51.098;6.414;2023-03-26T00:58:40;13.80;;;4.32;;
3052;SDS011;1536;51.098;6.414;2023-03-26T01:01:09;14.50;;;4.10;;
3052;SDS011;1536;51.098;6.414;2023-03-26T01:03:38;26.55;;;6.60;;
3052;SDS011;1536;51.098;6.414;2023-03-26T01:06:08;24.10;;;4.70;;
3052;SDS011;1536;51.098;6.414;2023-03-26T01:08:37;16.00;;;4.30;;
3052;SDS011;1536;51.098;6.414;2023-03-26T01:11:07;25.55;;;4.93;;
3052;SDS011;1536;51.098;6.414;2023-03-26T01:13:38;19.48;;;4.30;;
3052;SDS011;1536;51.098;6.414;2023-03-26T01:16:08;15.95;;;4.97;;
3052;SDS011;1536;51.098;6.414;2023-03-26T01:18:44;16.05;;;5.78;;
3052;SDS011;1536;51.098;6.414;2023-03-26T01:21:15;17.45;;;4.47;;
3052;SDS011;1536;51.098;6.414;2023-03-26T01:23:48;20.15;;;4.25;;
3052;SDS011;1536;51.098;6.414;2023-03-26T01:26:27;19.55;;;4.75;;
3052;SDS011;1536;51.098;6.414;2023-03-26T01:29:10;25.13;;;4.90;;
3052;SDS011;1536;51.098;6.414;2023-03-26T01:31:46;14.18;;;3.75;;
3052;SDS011;1536;51.098;6.414;2023-03-26T01:34:21;23.27;;;5.25;;
3052;SDS011;1536;51.098;6.414;2023-03-26T01:36:55;17.83;;;4.15;;
3052;SDS011;1536;51.098;6.414;2023-03-26T01:39:35;17.30;;;4.57;;
3052;SDS011;1536;51.098;6.414;2023-03-26T01:42:14;23.63;;;4.38;;
3052;SDS011;1536;51.098;6.414;2023-03-26T01:44:46;19.23;;;4.28;;
3052;SDS011;1536;51.098;6.414;2023-03-26T01:47:19;19.65;;;4.18;;
3052;SDS011;1536;51.098;6.414;2023-03-26T01:49:46;13.05;;;3.65;;
3052;SDS011;1536;51.098;6.414;2023-03-26T01:52:14;23.77;;;4.72;;
3052;SDS011;1536;51.098;6.414;2023-03-26T01:54:44;14.52;;;4.00;;
3052;SDS011;1536;51.098;6.414;2023-03-26T01:57:13;25.17;;;5.03;;
3052;SDS011;1536;51.098;6.414;2023-03-26T01:59:49;15.43;;;4.00;;
3052;SDS011;1536;51.098;6.414;2023-03-26T02:02:25;11.60;;;3.88;;
3052;SDS011;1536;51.098;6.414;2023-03-26T02:04:58;13.00;;;3.88;;
3052;SDS011;1536;51.098;6.414;2023-03-26T02:07:33;16.95;;;4.35;;
3052;SDS011;1536;51.098;6.414;2023-03-26T02:10:08;11.25;;;3.30;;
3052;SDS011;1536;51.098;6.414;2023-03-26T02:12:40;13.35;;;3.65;;
3052;SDS011;1536;51.098;6.414;2023-03-26T02:15:08;11.00;;;3.85;;
3052;SDS011;1536;51.098;6.414;2023-03-26T02:17:35;12.55;;;3.25;;
3052;SDS011;1536;51.098;6.414;2023-03-26T02:20:04;13.85;;;4.30;;
3052;SDS011;1536;51.098;6.414;2023-03-26T02:22:33;11.63;;;3.35;;
3052;SDS011;1536;51.098;6.414;2023-03-26T02:25:05;13.00;;;4.45;;
3052;SDS011;1536;51.098;6.414;2023-03-26T02:27:35;19.35;;;3.83;;
3052;SDS011;1536;51.098;6.414;2023-03-26T02:30:02;17.08;;;3.95;;
3052;SDS011;1536;51.098;6.414;2023-03-26T02:32:30;14.85;;;3.60;;
3052;SDS011;1536;51.098;6.414;2023-03-26T02:34:59;10.65;;;3.53;;
3052;SDS011;1536;51.098;6.414;2023-03-26T02:37:25;12.70;;;3.65;;
3052;SDS011;1536;51.098;6.414;2023-03-26T02:39:54;11.85;;;3.53;;
3052;SDS011;1536;51.098;6.414;2023-03-26T02:42:22;11.95;;;3.65;;
3052;SDS011;1536;51.098;6.414;2023-03-26T02:44:49;18.17;;;3.42;;
3052;SDS011;1536;51.098;6.414;2023-03-26T02:47:16;12.07;;;3.55;;
3052;SDS011;1536;51.098;6.414;2023-03-26T02:49:42;12.23;;;3.70;;
3052;SDS011;1536;51.098;6.414;2023-03-26T02:52:10;10.35;;;3.50;;
3052;SDS011;1536;51.098;6.414;2023-03-26T02:54:36;11.27;;;3.45;;
3052;SDS011;1536;51.098;6.414;2023-03-26T02:57:03;13.35;;;3.25;;
3052;SDS011;1536;51.098;6.414;2023-03-26T02:59:31;12.52;;;3.80;;
3052;SDS011;1536;51.098;6.414;2023-03-26T03:01:58;12.65;;;5.22;;
3052;SDS011;1536;51.098;6.414;2023-03-26T03:04:25;13.68;;;3.85;;
3052;SDS011;1536;51.098;6.414;2023-03-26T03:06:51;18.45;;;4.45;;
3052;SDS011;1536;51.098;6.414;2023-03-26T03:09:21;14.52;;;4.35;;
3052;SDS011;1536;51.098;6.414;2023-03-26T03:11:49;13.02;;;3.30;;
3052;SDS011;1536;51.098;6.414;2023-03-26T03:14:17;8.40;;;3.78;;
3052;SDS011;1536;51.098;6.414;2023-03-26T03:16:45;16.25;;;4.63;;
3052;SDS011;1536;51.098;6.414;2023-03-26T03:19:12;13.32;;;3.67;;
3052;SDS011;1536;51.098;6.414;2023-03-26T03:21:39;9.60;;;3.40;;
3052;SDS011;1536;51.098;6.414;2023-03-26T03:24:07;10.75;;;2.83;;
3052;SDS011;1536;51.098;6.414;2023-03-26T03:26:35;10.73;;;3.00;;
3052;SDS011;1536;51.098;6.414;2023-03-26T03:29:02;10.73;;;3.10;;
3052;SDS011;1536;51.098;6.414;2023-03-26T03:31:29;6.60;;;3.10;;
3052;SDS011;1536;51.098;6.414;2023-03-26T03:33:57;8.43;;;3.03;;
3052;SDS011;1536;51.098;6.414;2023-03-26T03:36:23;11.23;;;3.33;;
3052;SDS011;1536;51.098;6.414;2023-03-26T03:38:52;8.23;;;3.53;;
3052;SDS011;1536;51.098;6.414;2023-03-26T03:41:19;7.65;;;2.92;;
3052;SDS011;1536;51.098;6.414;2023-03-26T03:43:45;10.75;;;3.95;;
3052;SDS011;1536;51.098;6.414;2023-03-26T03:46:12;9.15;;;3.30;;
3052;SDS011;1536;51.098;6.414;2023-03-26T03:48:39;10.32;;;3.30;;
3052;SDS011;1536;51.098;6.414;2023-03-26T03:51:09;7.65;;;2.53;;
3052;SDS011;1536;51.098;6.414;2023-03-26T03:53:35;13.00;;;2.95;;
3052;SDS011;1536;51.098;6.414;2023-03-26T03:56:04;6.68;;;3.05;;
3052;SDS011;1536;51.098;6.414;2023-03-26T03:58:34;10.88;;;3.40;;
3052;SDS011;1536;51.098;6.414;2023-03-26T04:01:01;11.32;;;3.95;;
3052;SDS011;1536;51.098;6.414;2023-03-26T04:03:28;10.48;;;3.13;;
3052;SDS011;1536;51.098;6.414;2023-03-26T04:05:55;11.60;;;3.42;;
3052;SDS011;1536;51.098;6.414;2023-03-26T04:08:24;9.88;;;3.03;;
3052;SDS011;1536;51.098;6.414;2023-03-26T04:10:50;8.75;;;2.63;;
3052;SDS011;1536;51.098;6.414;2023-03-26T04:13:17;10.27;;;2.50;;
3052;SDS011;1536;51.098;6.414;2023-03-26T04:15:44;9.68;;;2.67;;
3052;SDS011;1536;51.098;6.414;2023-03-26T04:18:10;8.48;;;3.00;;
3052;SDS011;1536;51.098;6.414;2023-03-26T04:20:38;10.52;;;3.00;;
3052;SDS011;1536;51.098;6.414;2023-03-26T04:23:11;12.82;;;3.55;;
3052;SDS011;1536;51.098;6.414;2023-03-26T04:25:40;7.05;;;3.28;;
3052;SDS011;1536;51.098;6.414;2023-03-26T04:28:07;13.43;;;2.83;;
3052;SDS011;1536;51.098;6.414;2023-03-26T04:30:35;8.00;;;2.45;;
3052;SDS011;1536;51.098;6.414;2023-03-26T04:33:07;3.38;;;2.05;;
3052;SDS011;1536;51.098;6.414;2023-03-26T04:35:39;12.50;;;3.03;;
3052;SDS011;1536;51.098;6.414;2023-03-26T04:38:08;6.22;;;3.40;;
3052;SDS011;1536;51.098;6.414;2023-03-26T04:40:36;15.02;;;3.22;;
3052;SDS011;1536;51.098;6.414;2023-03-26T04:43:04;14.70;;;3.38;;
3052;SDS011;1536;51.098;6.414;2023-03-26T04:45:31;11.52;;;3.17;;
3052;SDS011;1536;51.098;6.414;2023-03-26T04:47:58;7.93;;;2.63;;
3052;SDS011;1536;51.098;6.414;2023-03-26T04:50:25;8.38;;;2.90;;
3052;SDS011;1536;51.098;6.414;2023-03-26T04:52:52;17.63;;;3.00;;
3052;SDS011;1536;51.098;6.414;2023-03-26T04:55:23;14.88;;;3.17;;
3052;SDS011;1536;51.098;6.414;2023-03-26T04:57:53;11.35;;;3.80;;
3052;SDS011;1536;51.098;6.414;2023-03-26T05:00:25;10.32;;;2.50;;
3052;SDS011;1536;51.098;6.414;2023-03-26T05:02:52;12.35;;;2.72;;
3052;SDS011;1536;51.098;6.414;2023-03-26T05:05:21;7.13;;;3.08;;
3052;SDS011;1536;51.098;6.414;2023-03-26T05:07:49;12.98;;;3.22;;
3052;SDS011;1536;51.098;6.414;2023-03-26T05:10:15;14.73;;;4.03;;
3052;SDS011;1536;51.098;6.414;2023-03-26T05:12:44;10.65;;;3.35;;
3052;SDS011;1536;51.098;6.414;2023-03-26T05:15:11;15.52;;;3.78;;
3052;SDS011;1536;51.098;6.414;2023-03-26T05:17:41;15.20;;;2.95;;
3052;SDS011;1536;51.098;6.414;2023-03-26T05:20:11;6.82;;;2.63;;
3052;SDS011;1536;51.098;6.414;2023-03-26T05:22:44;16.52;;;4.00;;
3052;SDS011;1536;51.098;6.414;2023-03-26T05:25:11;12.27;;;3.53;;
3052;SDS011;1536;51.098;6.414;2023-03-26T05:27:38;13.85;;;4.15;;
3052;SDS011;1536;51.098;6.414;2023-03-26T05:30:05;14.27;;;3.67;;
3052;SDS011;1536;51.098;6.414;2023-03-26T05:32:34;19.58;;;3.70;;
3052;SDS011;1536;51.098;6.414;2023-03-26T05:35:03;17.05;;;3.35;;
3052;SDS011;1536;51.098;6.414;2023-03-26T05:37:31;14.88;;;3.17;;
3052;SDS011;1536;51.098;6.414;2023-03-26T05:39:58;14.48;;;3.65;;
3052;SDS011;1536;51.098;6.414;2023-03-26T05:42:25;10.10;;;3.75;;
3052;SDS011;1536;51.098;6.414;2023-03-26T05:44:52;18.08;;;3.13;;
3052;SDS011;1536;51.098;6.414;2023-03-26T05:47:18;11.35;;;3.05;;
3052;SDS011;1536;51.098;6.414;2023-03-26T05:49:45;7.38;;;3.25;;
3052;SDS011;1536;51.098;6.414;2023-03-26T05:52:13;11.10;;;3.45;;
3052;SDS011;1536;51.098;6.414;2023-03-26T05:54:42;16.90;;;3.55;;
3052;SDS011;1536;51.098;6.414;2023-03-26T05:57:09;9.55;;;2.85;;
3052;SDS011;1536;51.098;6.414;2023-03-26T05:59:36;12.27;;;2.95;;
3052;SDS011;1536;51.098;6.414;2023-03-26T06:02:03;11.32;;;3.05;;
3052;SDS011;1536;51.098;6.414;2023-03-26T06:04:30;13.68;;;3.47;;
3052;SDS011;1536;51.098;6.414;2023-03-26T06:06:57;16.70;;;3.30;;
3052;SDS011;1536;51.098;6.414;2023-03-26T06:09:25;11.98;;;3.15;;
3052;SDS011;1536;51.098;6.414;2023-03-26T06:11:51;12.05;;;3.15;;
3052;SDS011;1536;51.098;6.414;2023-03-26T06:14:18;7.28;;;3.30;;
3052;SDS011;1536;51.098;6.414;2023-03-26T06:16:45;12.95;;;3.38;;
3052;SDS011;1536;51.098;6.414;2023-03-26T06:19:12;12.07;;;3.65;;
3052;SDS011;1536;51.098;6.414;2023-03-26T06:21:38;15.57;;;3.22;;
3052;SDS011;1536;51.098;6.414;2023-03-26T06:24:05;16.08;;;4.00;;
3052;SDS011;1536;51.098;6.414;2023-03-26T06:26:33;9.20;;;2.70;;
3052;SDS011;1536;51.098;6.414;2023-03-26T06:29:00;18.92;;;2.70;;
3052;SDS011;1536;51.098;6.414;2023-03-26T06:31:27;8.68;;;2.38;;
3052;SDS011;1536;51.098;6.414;2023-03-26T06:33:54;13.98;;;3.33;;
3052;SDS011;1536;51.098;6.414;2023-03-26T06:36:21;9.57;;;2.50;;
3052;SDS011;1536;51.098;6.414;2023-03-26T06:38:47;11.95;;;3.60;;
3052;SDS011;1536;51.098;6.414;2023-03-26T06:41:14;10.27;;;2.97;;
3052;SDS011;1536;51.098;6.414;2023-03-26T06:43:42;7.68;;;2.80;;
3052;SDS011;1536;51.098;6.414;2023-03-26T06:46:09;7.45;;;2.70;;
3052;SDS011;1536;51.098;6.414;2023-03-26T06:48:36;8.23;;;2.80;;
3052;SDS011;1536;51.098;6.414;2023-03-26T06:51:03;9.90;;;2.42;;
3052;SDS011;1536;51.098;6.414;2023-03-26T06:53:30;10.07;;;3.45;;
3052;SDS011;1536;51.098;6.414;2023-03-26T06:55:57;10.80;;;3.30;;
3052;SDS011;1536;51.098;6.414;2023-03-26T06:58:23;13.55;;;2.50;;
3052;SDS011;1536;51.098;6.414;2023-03-26T07:00:52;8.48;;;3.00;;
3052;SDS011;1536;51.098;6.414;2023-03-26T07:03:19;7.32;;;2.70;;
3052;SDS011;1536;51.098;6.414;2023-03-26T07:05:47;9.32;;;2.90;;
3052;SDS011;1536;51.098;6.414;2023-03-26T07:08:14;9.90;;;3.40;;
3052;SDS011;1536;51.098;6.414;2023-03-26T07:10:41;14.25;;;3.30;;
3052;SDS011;1536;51.098;6.414;2023-03-26T07:13:07;9.88;;;2.80;;
3052;SDS011;1536;51.098;6.414;2023-03-26T07:15:34;8.73;;;3.75;;
3052;SDS011;1536;51.098;6.414;2023-03-26T07:18:03;8.70;;;2.85;;
3052;SDS011;1536;51.098;6.414;2023-03-26T07:20:30;13.60;;;3.60;;
3052;SDS011;1536;51.098;6.414;2023-03-26T07:22:57;11.70;;;3.22;;
3052;SDS011;1536;51.098;6.414;2023-03-26T07:25:24;11.30;;;2.63;;
3052;SDS011;1536;51.098;6.414;2023-03-26T07:27:55;15.55;;;3.50;;
3052;SDS011;1536;51.098;6.414;2023-03-26T07:30:29;11.65;;;4.32;;
3052;SDS011;1536;51.098;6.414;2023-03-26T07:33:05;16.42;;;3.83;;
3052;SDS011;1536;51.098;6.414;2023-03-26T07:35:40;7.82;;;2.92;;
3052;SDS011;1536;51.098;6.414;2023-03-26T07:38:16;4.93;;;2.75;;
3052;SDS011;1536;51.098;6.414;2023-03-26T07:40:54;5.35;;;3.00;;
3052;SDS011;1536;51.098;6.414;2023-03-26T07:43:44;9.95;;;3.05;;
3052;SDS011;1536;51.098;6.414;2023-03-26T07:46:27;7.25;;;2.60;;
3052;SDS011;1536;51.098;6.414;2023-03-26T07:48:58;7.55;;;3.47;;
3052;SDS011;1536;51.098;6.414;2023-03-26T07:51:26;8.25;;;2.88;;
3052;SDS011;1536;51.098;6.414;2023-03-26T07:53:56;11.68;;;2.92;;
3052;SDS011;1536;51.098;6.414;2023-03-26T07:56:25;14.15;;;3.20;;
3052;SDS011;1536;51.098;6.414;2023-03-26T07:59:01;13.77;;;4.00;;
3052;SDS011;1536;51.098;6.414;2023-03-26T08:01:50;8.82;;;3.10;;
3052;SDS011;1536;51.098;6.414;2023-03-26T08:04:31;7.13;;;3.30;;
3052;SDS011;1536;51.098;6.414;2023-03-26T08:07:08;11.85;;;3.78;;
3052;SDS011;1536;51.098;6.414;2023-03-26T08:09:53;12.45;;;3.20;;
3052;SDS011;1536;51.098;6.414;2023-03-26T08:12:30;7.70;;;3.30;;
3052;SDS011;1536;51.098;6.414;2023-03-26T08:15:08;10.23;;;3.42;;
3052;SDS011;1536;51.098;6.414;2023-03-26T08:17:43;9.38;;;4.32;;
3052;SDS011;1536;51.098;6.414;2023-03-26T08:20:21;5.47;;;2.72;;
3052;SDS011;1536;51.098;6.414;2023-03-26T08:22:59;8.73;;;3.55;;
3052;SDS011;1536;51.098;6.414;2023-03-26T08:25:31;8.27;;;3.20;;
3052;SDS011;1536;51.098;6.414;2023-03-26T08:28:15;10.00;;;3.58;;
3052;SDS011;1536;51.098;6.414;2023-03-26T08:30:51;9.32;;;3.83;;
3052;SDS011;1536;51.098;6.414;2023-03-26T08:33:19;14.00;;;2.97;;
3052;SDS011;1536;51.098;6.414;2023-03-26T08:35:48;11.27;;;3.65;;
3052;SDS011;1536;51.098;6.414;2023-03-26T08:38:16;11.20;;;4.10;;
3052;SDS011;1536;51.098;6.414;2023-03-26T08:40:50;11.65;;;4.70;;
3052;SDS011;1536;51.098;6.414;2023-03-26T08:46:51;13.23;;;4.53;;
3052;SDS011;1536;51.098;6.414;2023-03-26T08:49:51;9.90;;;3.67;;
3052;SDS011;1536;51.098;6.414;2023-03-26T08:52:35;14.93;;;4.40;;
3052;SDS011;1536;51.098;6.414;2023-03-26T08:58:08;12.77;;;4.07;;
3052;SDS011;1536;51.098;6.414;2023-03-26T09:01:03;6.63;;;3.42;;
3052;SDS011;1536;51.098;6.414;2023-03-26T09:03:48;4.40;;;2.55;;
3052;SDS011;1536;51.098;6.414;2023-03-26T09:15:45;7.15;;;3.42;;
3052;SDS011;1536;51.098;6.414;2023-03-26T09:18:41;13.00;;;2.60;;
3052;SDS011;1536;51.098;6.414;2023-03-26T09:24:49;6.63;;;2.35;;
3052;SDS011;1536;51.098;6.414;2023-03-26T09:27:52;5.30;;;2.30;;
3052;SDS011;1536;51.098;6.414;2023-03-26T09:30:48;5.80;;;2.58;;
3052;SDS011;1536;51.098;6.414;2023-03-26T09:33:48;4.30;;;1.70;;
3052;SDS011;1536;51.098;6.414;2023-03-26T09:36:30;7.20;;;1.85;;
3052;SDS011;1536;51.098;6.414;2023-03-26T09:39:14;3.38;;;2.17;;
3052;SDS011;1536;51.098;6.414;2023-03-26T09:41:45;4.65;;;2.80;;
3052;SDS011;1536;51.098;6.414;2023-03-26T09:44:40;6.15;;;2.33;;
3052;SDS011;1536;51.098;6.414;2023-03-26T09:56:15;2.20;;;2.00;;
3052;SDS011;1536;51.098;6.414;2023-03-26T09:58:54;6.55;;;2.50;;
3052;SDS011;1536;51.098;6.414;2023-03-26T10:01:43;3.60;;;2.00;;
3052;SDS011;1536;51.098;6.414;2023-03-26T10:04:30;3.95;;;2.47;;
3052;SDS011;1536;51.098;6.414;2023-03-26T10:07:07;3.03;;;2.10;;
3052;SDS011;1536;51.098;6.414;2023-03-26T10:09:55;3.55;;;2.35;;
3052;SDS011;1536;51.098;6.414;2023-03-26T10:12:28;5.53;;;2.20;;
3052;SDS011;1536;51.098;6.414;2023-03-26T10:15:01;8.82;;;2.95;;
3052;SDS011;1536;51.098;6.414;2023-03-26T10:17:50;5.72;;;2.90;;
3052;SDS011;1536;51.098;6.414;2023-03-26T10:20:31;3.33;;;2.40;;
3052;SDS011;1536;51.098;6.414;2023-03-26T10:23:22;3.17;;;2.38;;
3052;SDS011;1536;51.098;6.414;2023-03-26T10:26:04;5.10;;;2.30;;
3052;SDS011;1536;51.098;6.414;2023-03-26T10:28:43;5.07;;;2.20;;
3052;SDS011;1536;51.098;6.414;2023-03-26T10:31:35;5.25;;;2.30;;
3052;SDS011;1536;51.098;6.414;2023-03-26T10:34:08;3.92;;;1.80;;
3052;SDS011;1536;51.098;6.414;2023-03-26T10:36:46;3.20;;;2.08;;
3052;SDS011;1536;51.098;6.414;2023-03-26T10:39:27;4.30;;;2.10;;
3052;SDS011;1536;51.098;6.414;2023-03-26T10:42:12;5.18;;;1.90;;
3052;SDS011;1536;51.098;6.414;2023-03-26T10:45:02;3.65;;;1.50;;
3052;SDS011;1536;51.098;6.414;2023-03-26T10:47:42;3.53;;;1.83;;
3052;SDS011;1536;51.098;6.414;2023-03-26T10:50:28;4.38;;;1.90;;
3052;SDS011;1536;51.098;6.414;2023-03-26T10:53:10;4.75;;;2.10;;
3052;SDS011;1536;51.098;6.414;2023-03-26T10:55:46;8.95;;;2.05;;
3052;SDS011;1536;51.098;6.414;2023-03-26T10:58:20;2.90;;;1.50;;
3052;SDS011;1536;51.098;6.414;2023-03-26T11:00:53;3.22;;;2.15;;
3052;SDS011;1536;51.098;6.414;2023-03-26T11:06:22;4.63;;;2.40;;
3052;SDS011;1536;51.098;6.414;2023-03-26T11:08:59;3.97;;;2.15;;
3052;SDS011;1536;51.098;6.414;2023-03-26T11:11:37;4.90;;;2.15;;
3052;SDS011;1536;51.098;6.414;2023-03-26T11:14:09;2.65;;;1.75;;
3052;SDS011;1536;51.098;6.414;2023-03-26T11:16:46;2.75;;;1.52;;
3052;SDS011;1536;51.098;6.414;2023-03-26T11:19:20;4.63;;;2.38;;
3052;SDS011;1536;51.098;6.414;2023-03-26T11:21:54;3.95;;;1.90;;
3052;SDS011;1536;51.098;6.414;2023-03-26T11:27:33;5.90;;;2.55;;
3052;SDS011;1536;51.098;6.414;2023-03-26T11:30:16;4.60;;;2.83;;
3052;SDS011;1536;51.098;6.414;2023-03-26T11:32:49;7.20;;;2.40;;
3052;SDS011;1536;51.098;6.414;2023-03-26T11:35:20;5.82;;;2.45;;
3052;SDS011;1536;51.098;6.414;2023-03-26T11:37:52;5.60;;;2.60;;
3052;SDS011;1536;51.098;6.414;2023-03-26T11:40:24;3.15;;;2.25;;
3052;SDS011;1536;51.098;6.414;2023-03-26T11:42:57;4.10;;;2.28;;
3052;SDS011;1536;51.098;6.414;2023-03-26T11:45:27;3.03;;;2.78;;
3052;SDS011;1536;51.098;6.414;2023-03-26T11:47:58;7.18;;;2.65;;
3052;SDS011;1536;51.098;6.414;2023-03-26T11:50:32;4.05;;;2.60;;
3052;SDS011;1536;51.098;6.414;2023-03-26T11:53:09;3.33;;;2.45;;
3052;SDS011;1536;51.098;6.414;2023-03-26T11:55:39;3.20;;;2.20;;
3052;SDS011;1536;51.098;6.414;2023-03-26T11:58:11;6.00;;;2.38;;
3052;SDS011;1536;51.098;6.414;2023-03-26T12:00:51;6.30;;;2.50;;
3052;SDS011;1536;51.098;6.414;2023-03-26T12:03:20;2.30;;;2.10;;
3052;SDS011;1536;51.098;6.414;2023-03-26T12:05:48;2.90;;;2.60;;
3052;SDS011;1536;51.098;6.414;2023-03-26T12:08:18;5.22;;;3.25;;
3052;SDS011;1536;51.098;6.414;2023-03-26T12:10:51;4.18;;;2.47;;
3052;SDS011;1536;51.098;6.414;2023-03-26T12:13:27;5.82;;;2.53;;
3052;SDS011;1536;51.098;6.414;2023-03-26T12:16:00;6.85;;;3.22;;
3052;SDS011;1536;51.098;6.414;2023-03-26T12:18:32;3.40;;;2.17;;
3052;SDS011;1536;51.098;6.414;2023-03-26T12:21:03;3.53;;;2.17;;
3052;SDS011;1536;51.098;6.414;2023-03-26T12:23:33;4.60;;;2.38;;
3052;SDS011;1536;51.098;6.414;2023-03-26T12:26:14;3.17;;;2.80;;
3052;SDS011;1536;51.098;6.414;2023-03-26T12:28:43;2.97;;;2.13;;
3052;SDS011;1536;51.098;6.414;2023-03-26T12:31:11;3.20;;;2.00;;
3052;SDS011;1536;51.098;6.414;2023-03-26T12:33:42;3.90;;;2.10;;
3052;SDS011;1536;51.098;6.414;2023-03-26T12:36:16;3.80;;;2.08;;
3052;SDS011;1536;51.098;6.414;2023-03-26T12:38:47;4.03;;;1.83;;
3052;SDS011;1536;51.098;6.414;2023-03-26T12:41:15;2.38;;;2.17;;
3052;SDS011;1536;51.098;6.414;2023-03-26T12:43:43;2.45;;;2.17;;
3052;SDS011;1536;51.098;6.414;2023-03-26T12:46:19;3.45;;;1.95;;
3052;SDS011;1536;51.098;6.414;2023-03-26T12:48:49;2.40;;;2.13;;
3052;SDS011;1536;51.098;6.414;2023-03-26T12:51:19;3.70;;;2.33;;
3052;SDS011;1536;51.098;6.414;2023-03-26T12:53:57;4.03;;;3.00;;
3052;SDS011;1536;51.098;6.414;2023-03-26T12:56:41;3.22;;;1.83;;
3052;SDS011;1536;51.098;6.414;2023-03-26T12:59:15;4.68;;;2.63;;
3052;SDS011;1536;51.098;6.414;2023-03-26T13:01:53;2.00;;;1.80;;
3052;SDS011;1536;51.098;6.414;2023-03-26T13:04:36;3.13;;;2.20;;
3052;SDS011;1536;51.098;6.414;2023-03-26T13:07:21;1.77;;;1.50;;
3052;SDS011;1536;51.098;6.414;2023-03-26T13:09:56;3.20;;;1.58;;
3052;SDS011;1536;51.098;6.414;2023-03-26T13:12:46;2.88;;;1.85;;
3052;SDS011;1536;51.098;6.414;2023-03-26T13:15:22;2.85;;;1.90;;
3052;SDS011;1536;51.098;6.414;2023-03-26T13:18:00;2.33;;;1.65;;
3052;SDS011;1536;51.098;6.414;2023-03-26T13:20:46;1.80;;;1.70;;
3052;SDS011;1536;51.098;6.414;2023-03-26T13:23:18;2.35;;;1.90;;
3052;SDS011;1536;51.098;6.414;2023-03-26T13:25:53;2.95;;;1.60;;
3052;SDS011;1536;51.098;6.414;2023-03-26T13:28:31;1.90;;;1.77;;
3052;SDS011;1536;51.098;6.414;2023-03-26T13:31:05;1.85;;;1.33;;
3052;SDS011;1536;51.098;6.414;2023-03-26T13:33:42;2.67;;;1.20;;
3052;SDS011;1536;51.098;6.414;2023-03-26T13:36:18;2.60;;;1.60;;
3052;SDS011;1536;51.098;6.414;2023-03-26T13:38:53;1.60;;;1.13;;
3052;SDS011;1536;51.098;6.414;2023-03-26T13:41:31;1.65;;;1.25;;
3052;SDS011;1536;51.098;6.414;2023-03-26T13:44:12;1.90;;;1.52;;
3052;SDS011;1536;51.098;6.414;2023-03-26T13:46:43;1.30;;;1.00;;
3052;SDS011;1536;51.098;6.414;2023-03-26T13:49:13;1.40;;;1.23;;
3052;SDS011;1536;51.098;6.414;2023-03-26T13:51:42;1.90;;;1.02;;
3052;SDS011;1536;51.098;6.414;2023-03-26T13:54:14;1.80;;;1.70;;
3052;SDS011;1536;51.098;6.414;2023-03-26T13:56:46;3.35;;;1.52;;
3052;SDS011;1536;51.098;6.414;2023-03-26T13:59:19;1.75;;;1.60;;
3052;SDS011;1536;51.098;6.414;2023-03-26T14:01:53;2.00;;;1.33;;
3052;SDS011;1536;51.098;6.414;2023-03-26T14:04:24;1.77;;;1.35;;
3052;SDS011;1536;51.098;6.414;2023-03-26T14:06:57;1.92;;;1.48;;
3052;SDS011;1536;51.098;6.414;2023-03-26T14:09:30;1.45;;;1.35;;
3052;SDS011;1536;51.098;6.414;2023-03-26T14:12:10;1.30;;;1.20;;
3052;SDS011;1536;51.098;6.414;2023-03-26T14:14:47;2.58;;;1.90;;
3052;SDS011;1536;51.098;6.414;2023-03-26T14:17:18;5.40;;;1.98;;
3052;SDS011;1536;51.098;6.414;2023-03-26T14:20:06;4.25;;;3.03;;
3052;SDS011;1536;51.098;6.414;2023-03-26T14:23:01;5.03;;;3.45;;
3052;SDS011;1536;51.098;6.414;2023-03-26T14:25:41;5.63;;;3.33;;
3052;SDS011;1536;51.098;6.414;2023-03-26T14:28:18;3.80;;;3.45;;
3052;SDS011;1536;51.098;6.414;2023-03-26T14:30:57;5.60;;;4.00;;
3052;SDS011;1536;51.098;6.414;2023-03-26T14:33:45;5.20;;;4.55;;
3052;SDS011;1536;51.098;6.414;2023-03-26T14:36:39;7.65;;;5.03;;
3052;SDS011;1536;51.098;6.414;2023-03-26T14:39:42;4.70;;;4.20;;
3052;SDS011;1536;51.098;6.414;2023-03-26T14:42:23;4.88;;;4.13;;
3052;SDS011;1536;51.098;6.414;2023-03-26T14:44:59;6.50;;;4.15;;
3052;SDS011;1536;51.098;6.414;2023-03-26T14:47:48;6.20;;;3.90;;
3052;SDS011;1536;51.098;6.414;2023-03-26T14:50:33;3.90;;;3.40;;
3052;SDS011;1536;51.098;6.414;2023-03-26T14:53:11;3.00;;;2.70;;
3052;SDS011;1536;51.098;6.414;2023-03-26T14:55:50;2.75;;;2.08;;
3052;SDS011;1536;51.098;6.414;2023-03-26T14:58:43;1.98;;;1.70;;
3052;SDS011;1536;51.098;6.414;2023-03-26T15:01:47;3.15;;;1.52;;
3052;SDS011;1536;51.098;6.414;2023-03-26T15:04:49;5.63;;;1.77;;
3052;SDS011;1536;51.098;6.414;2023-03-26T15:07:40;1.67;;;1.48;;
3052;SDS011;1536;51.098;6.414;2023-03-26T15:13:30;2.35;;;1.70;;
3052;SDS011;1536;51.098;6.414;2023-03-26T15:16:11;4.95;;;4.03;;
3052;SDS011;1536;51.098;6.414;2023-03-26T15:19:06;9.45;;;5.00;;
3052;SDS011;1536;51.098;6.414;2023-03-26T15:27:56;7.07;;;4.93;;
3052;SDS011;1536;51.098;6.414;2023-03-26T15:34:02;5.32;;;4.80;;
3052;SDS011;1536;51.098;6.414;2023-03-26T15:37:14;4.47;;;3.78;;
3052;SDS011;1536;51.098;6.414;2023-03-26T15:40:28;6.55;;;3.90;;
3052;SDS011;1536;51.098;6.414;2023-03-26T15:43:05;5.07;;;3.25;;
3052;SDS011;1536;51.098;6.414;2023-03-26T15:45:36;3.80;;;2.85;;
3052;SDS011;1536;51.098;6.414;2023-03-26T15:51:21;5.13;;;4.25;;
3052;SDS011;1536;51.098;6.414;2023-03-26T15:53:58;4.82;;;4.30;;
3052;SDS011;1536;51.098;6.414;2023-03-26T15:56:43;7.45;;;4.05;;
3052;SDS011;1536;51.098;6.414;2023-03-26T15:59:24;7.82;;;4.60;;
3052;SDS011;1536;51.098;6.414;2023-03-26T16:02:06;5.05;;;4.35;;
3052;SDS011;1536;51.098;6.414;2023-03-26T16:04:42;5.20;;;4.63;;
3052;SDS011;1536;51.098;6.414;2023-03-26T16:07:23;4.90;;;4.20;;
3052;SDS011;1536;51.098;6.414;2023-03-26T16:10:12;8.23;;;4.10;;
3052;SDS011;1536;51.098;6.414;2023-03-26T16:12:54;4.75;;;3.85;;
3052;SDS011;1536;51.098;6.414;2023-03-26T16:15:36;4.43;;;4.00;;
3052;SDS011;1536;51.098;6.414;2023-03-26T16:21:02;4.25;;;3.35;;
3052;SDS011;1536;51.098;6.414;2023-03-26T16:23:51;4.97;;;4.07;;
3052;SDS011;1536;51.098;6.414;2023-03-26T16:26:22;3.20;;;2.90;;
3052;SDS011;1536;51.098;6.414;2023-03-26T16:32:07;4.25;;;3.00;;
3052;SDS011;1536;51.098;6.414;2023-03-26T16:34:41;5.30;;;3.70;;
3052;SDS011;1536;51.098;6.414;2023-03-26T16:37:33;6.40;;;3.22;;
3052;SDS011;1536;51.098;6.414;2023-03-26T16:43:00;4.32;;;3.25;;
3052;SDS011;1536;51.098;6.414;2023-03-26T16:45:36;4.80;;;3.35;;
3052;SDS011;1536;51.098;6.414;2023-03-26T16:48:13;5.53;;;4.50;;
3052;SDS011;1536;51.098;6.414;2023-03-26T16:50:48;9.02;;;4.85;;